Time;durP1;ratioP1;P1;durP2;ratioP2;P2;SDS_P1;SDS_P2;PMS_P1;PMS_P2;Temp;Humidity;BMP_temperature;BMP_pressure;BME280_temperature;BME280_humidity;BME280_pressure;Samples;Min_cycle;Max_cycle;Signal;HPM_P1;HPM_P2
2022/04/16 00:02:13;;;;;;;;;;;21.80;48.40;;;;;;5097724;28;19939;-55
2022/04/16 00:04:42;;;;;;;;;;;21.80;48.40;;;;;;5097314;28;20391;-56
2022/04/16 00:07:10;;;;;;;;;;;21.80;48.40;;;;;;5097332;28;19928;-51
2022/04/16 00:09:37;;;;;;;;;;;21.80;48.30;;;;;;5096415;28;19928;-50
2022/04/16 00:12:05;;;;;;;;;;;21.80;48.30;;;;;;5097175;28;19928;-53
2022/04/16 00:14:31;;;;;;;;;;;21.80;48.40;;;;;;5079405;28;19924;-53
2022/04/16 00:16:59;;;;;;;;;;;21.80;48.30;;;;;;5097466;28;19931;-50
2022/04/16 00:19:26;;;;;;;;;;;21.80;48.30;;;;;;5097420;28;19924;-52
2022/04/16 00:21:53;;;;;;;;;;;21.80;48.30;;;;;;5097218;28;19924;-51
2022/04/16 00:24:20;;;;;;;;;;;21.80;48.40;;;;;;5095902;28;19928;-51
2022/04/16 00:26:50;;;;;;;;;;;21.80;48.90;;;;;;5097250;28;20333;-51
2022/04/16 00:29:17;;;;;;;;;;;21.80;48.30;;;;;;5097202;28;19939;-52
2022/04/16 00:31:45;;;;;;;;;;;21.80;48.40;;;;;;5097084;28;20014;-51
2022/04/16 00:34:14;;;;;;;;;;;21.80;48.30;;;;;;5096811;28;19950;-50
2022/04/16 00:36:42;;;;;;;;;;;21.80;48.30;;;;;;5096727;28;20018;-53
2022/04/16 00:39:09;;;;;;;;;;;21.80;48.30;;;;;;5095840;28;19924;-45
2022/04/16 00:41:37;;;;;;;;;;;21.80;48.30;;;;;;5076713;28;19970;-44
2022/04/16 00:44:04;;;;;;;;;;;21.80;48.30;;;;;;5076589;28;19928;-49
2022/04/16 00:46:31;;;;;;;;;;;21.80;48.30;;;;;;5076652;28;20338;-44
2022/04/16 00:48:58;;;;;;;;;;;21.80;48.30;;;;;;5076563;28;19925;-50
2022/04/16 00:51:26;;;;;;;;;;;21.80;48.30;;;;;;5076121;28;19924;-44
2022/04/16 00:53:54;;;;;;;;;;;21.80;48.20;;;;;;5076176;28;19928;-48
2022/04/16 00:56:21;;;;;;;;;;;21.80;48.20;;;;;;5093387;28;19924;-50
2022/04/16 00:58:48;;;;;;;;;;;21.80;48.30;;;;;;5096546;28;20030;-44
2022/04/16 01:01:15;;;;;;;;;;;21.80;48.30;;;;;;5091347;28;19924;-52
2022/04/16 01:03:45;;;;;;;;;;;21.80;48.30;;;;;;5075376;28;19929;-52
2022/04/16 01:06:14;;;;;;;;;;;21.80;48.20;;;;;;5076227;28;20261;-52
2022/04/16 01:08:44;;;;;;;;;;;21.80;48.20;;;;;;5076285;28;19925;-53
2022/04/16 01:11:12;;;;;;;;;;;21.80;48.30;;;;;;5090893;28;19985;-53
2022/04/16 01:13:39;;;;;;;;;;;21.80;48.20;;;;;;5096434;28;19924;-52
2022/04/16 01:16:06;;;;;;;;;;;21.80;48.20;;;;;;5096063;28;20376;-50
2022/04/16 01:18:34;;;;;;;;;;;21.80;48.20;;;;;;5095980;28;19954;-47
2022/04/16 01:21:01;;;;;;;;;;;21.80;48.20;;;;;;5096143;28;19928;-51
2022/04/16 01:23:30;;;;;;;;;;;21.80;48.20;;;;;;5095830;28;19924;-48
2022/04/16 01:25:57;;;;;;;;;;;21.80;48.20;;;;;;5095159;28;20014;-49
2022/04/16 01:28:24;;;;;;;;;;;21.80;48.20;;;;;;5078736;28;19951;-52
2022/04/16 01:30:51;;;;;;;;;;;21.80;48.20;;;;;;5095664;28;19985;-49
2022/04/16 01:33:18;;;;;;;;;;;21.80;48.20;;;;;;5095930;28;19928;-52
2022/04/16 01:35:45;;;;;;;;;;;21.80;48.20;;;;;;5095647;28;19924;-50
2022/04/16 01:38:12;;;;;;;;;;;21.80;48.20;;;;;;5095585;28;19924;-44
2022/04/16 01:40:39;;;;;;;;;;;21.80;48.20;;;;;;5094618;28;19969;-44
2022/04/16 01:43:06;;;;;;;;;;;21.80;48.20;;;;;;5095821;28;19924;-45
2022/04/16 01:45:33;;;;;;;;;;;21.80;48.20;;;;;;5095384;28;19928;-45
2022/04/16 01:48:01;;;;;;;;;;;21.80;48.20;;;;;;5095746;28;20268;-45
2022/04/16 01:50:28;;;;;;;;;;;21.80;48.20;;;;;;5095234;28;19953;-50
2022/04/16 01:52:56;;;;;;;;;;;21.80;48.20;;;;;;5095618;28;19977;-46
2022/04/16 01:55:22;;;;;;;;;;;21.80;48.20;;;;;;5094353;28;20441;-49
2022/04/16 01:57:50;;;;;;;;;;;21.80;48.10;;;;;;5095524;28;19924;-52
2022/04/16 02:00:19;;;;;;;;;;;21.80;48.20;;;;;;5095039;28;20387;-50
2022/04/16 02:02:46;;;;;;;;;;;21.80;48.20;;;;;;5095435;28;19924;-45
2022/04/16 02:05:13;;;;;;;;;;;21.80;48.10;;;;;;5095026;28;19975;-52
2022/04/16 02:07:41;;;;;;;;;;;21.80;48.10;;;;;;5095003;28;19930;-51
2022/04/16 02:10:09;;;;;;;;;;;21.80;48.10;;;;;;5094353;28;19978;-49
2022/04/16 02:12:37;;;;;;;;;;;21.80;48.20;;;;;;5095223;28;19924;-44
2022/04/16 02:15:07;;;;;;;;;;;21.80;48.20;;;;;;5094185;28;20312;-48
2022/04/16 02:17:34;;;;;;;;;;;21.80;48.10;;;;;;5095679;28;19928;-44
2022/04/16 02:20:01;;;;;;;;;;;21.80;48.10;;;;;;5077159;28;20295;-52
2022/04/16 02:22:37;;;;;;;;;;;21.80;48.10;;;;;;5094712;28;19924;-46
2022/04/16 02:25:05;;;;;;;;;;;21.80;48.10;;;;;;5094962;28;19935;-44
2022/04/16 02:27:34;;;;;;;;;;;21.80;48.10;;;;;;5094390;28;20334;-45
2022/04/16 02:30:05;;;;;;;;;;;21.80;48.70;;;;;;5094846;28;20018;-51
2022/04/16 02:32:35;;;;;;;;;;;21.80;48.10;;;;;;5094587;28;19973;-46
2022/04/16 02:35:03;;;;;;;;;;;21.80;48.10;;;;;;5094494;28;20376;-49
2022/04/16 02:37:30;;;;;;;;;;;21.70;48.00;;;;;;5094466;28;19924;-45
2022/04/16 02:39:57;;;;;;;;;;;21.80;48.10;;;;;;5094731;28;19924;-44
2022/04/16 02:42:24;;;;;;;;;;;21.80;48.10;;;;;;5093399;28;19924;-45
2022/04/16 02:47:36;;;;;;;;;;;21.80;48.10;;;;;;5094653;28;19924;-45
2022/04/16 02:50:03;;;;;;;;;;;21.80;48.10;;;;;;5094535;28;19931;-44
2022/04/16 02:52:36;;;;;;;;;;;21.80;48.10;;;;;;5094386;28;19924;-49
2022/04/16 02:55:04;;;;;;;;;;;21.80;48.10;;;;;;5094481;28;19924;-45
2022/04/16 02:57:31;;;;;;;;;;;21.80;48.10;;;;;;5093514;28;19993;-44
2022/04/16 02:59:59;;;;;;;;;;;21.80;48.10;;;;;;5093972;28;19986;-47
2022/04/16 03:02:33;;;;;;;;;;;21.80;48.10;;;;;;5094647;28;19924;-44
2022/04/16 03:05:00;;;;;;;;;;;21.80;48.10;;;;;;5076372;28;20455;-44
2022/04/16 03:07:27;;;;;;;;;;;21.80;48.10;;;;;;5093953;28;20399;-45
2022/04/16 03:09:54;;;;;;;;;;;21.80;48.10;;;;;;5093907;28;19924;-46
2022/04/16 03:12:21;;;;;;;;;;;21.80;48.10;;;;;;5092957;28;19924;-44
2022/04/16 03:17:33;;;;;;;;;;;21.80;48.10;;;;;;5093875;28;20349;-47
2022/04/16 03:20:04;;;;;;;;;;;21.80;48.10;;;;;;5094096;28;20280;-44
2022/04/16 03:22:33;;;;;;;;;;;21.80;48.10;;;;;;5093483;28;19923;-47
2022/04/16 03:25:09;;;;;;;;;;;21.80;48.10;;;;;;5093688;28;19970;-47
2022/04/16 03:27:39;;;;;;;;;;;21.70;48.00;;;;;;5092548;28;19928;-44
2022/04/16 03:30:06;;;;;;;;;;;21.80;48.10;;;;;;5093610;28;19928;-48
2022/04/16 03:32:40;;;;;;;;;;;21.80;48.10;;;;;;5093678;28;19959;-46
2022/04/16 03:35:07;;;;;;;;;;;21.80;48.10;;;;;;5093633;28;19924;-46
2022/04/16 03:37:35;;;;;;;;;;;21.70;48.00;;;;;;5093962;28;20330;-49
2022/04/16 03:40:02;;;;;;;;;;;21.70;48.00;;;;;;5094414;28;19974;-44
2022/04/16 03:42:31;;;;;;;;;;;21.80;48.10;;;;;;5092677;28;19931;-47
2022/04/16 03:45:00;;;;;;;;;;;21.70;48.00;;;;;;5093798;28;19928;-53
2022/04/16 03:47:27;;;;;;;;;;;21.70;48.00;;;;;;5093758;28;19931;-45
2022/04/16 03:49:55;;;;;;;;;;;21.80;48.10;;;;;;5093815;28;19924;-45
2022/04/16 03:52:22;;;;;;;;;;;21.80;48.10;;;;;;5093693;28;19924;-48
2022/04/16 04:00:20;;;;;;;;;;;21.80;48.10;;;;;;5093659;28;19977;-44
2022/04/16 04:02:47;;;;;;;;;;;21.80;48.10;;;;;;5093674;28;19924;-44
2022/04/16 04:05:14;;;;;;;;;;;21.80;48.10;;;;;;5093593;28;19930;-48
2022/04/16 04:07:41;;;;;;;;;;;21.80;48.00;;;;;;5093359;28;19924;-46
2022/04/16 04:10:10;;;;;;;;;;;21.80;48.00;;;;;;5093624;28;19970;-47
2022/04/16 04:12:37;;;;;;;;;;;21.80;48.10;;;;;;5092351;28;19924;-47
2022/04/16 04:15:04;;;;;;;;;;;21.80;48.10;;;;;;5093297;28;19932;-44
2022/04/16 04:17:33;;;;;;;;;;;21.70;48.00;;;;;;5093541;28;19924;-51
2022/04/16 04:20:00;;;;;;;;;;;21.70;47.90;;;;;;5093559;28;19924;-49
2022/04/16 04:22:27;;;;;;;;;;;21.80;48.00;;;;;;5093076;28;19985;-45
2022/04/16 04:24:54;;;;;;;;;;;21.80;48.00;;;;;;5093078;28;20368;-50
2022/04/16 04:27:21;;;;;;;;;;;21.80;48.00;;;;;;5092248;28;19924;-51
2022/04/16 04:29:48;;;;;;;;;;;21.70;47.90;;;;;;5093066;28;20371;-52
2022/04/16 04:32:15;;;;;;;;;;;21.70;47.90;;;;;;5093425;28;19924;-48
2022/04/16 04:34:42;;;;;;;;;;;21.70;47.90;;;;;;5093083;28;19924;-52
2022/04/16 04:37:09;;;;;;;;;;;21.80;48.00;;;;;;5093046;28;20371;-51
2022/04/16 04:39:35;;;;;;;;;;;21.80;48.00;;;;;;5096188;28;19928;-48
2022/04/16 04:42:02;;;;;;;;;;;21.80;48.00;;;;;;5095783;28;19932;-48
2022/04/16 04:44:29;;;;;;;;;;;21.70;47.90;;;;;;5096650;28;19924;-51
2022/04/16 04:46:56;;;;;;;;;;;21.70;47.90;;;;;;5096868;28;20356;-48
2022/04/16 04:49:23;;;;;;;;;;;21.80;48.00;;;;;;5096548;28;19973;-49
2022/04/16 04:51:50;;;;;;;;;;;21.80;48.00;;;;;;5096370;28;19974;-46
2022/04/16 04:54:17;;;;;;;;;;;21.70;47.90;;;;;;5096473;28;19924;-46
2022/04/16 04:56:44;;;;;;;;;;;21.70;47.90;;;;;;5095914;28;19954;-49
2022/04/16 04:59:11;;;;;;;;;;;21.80;48.00;;;;;;5096275;28;19973;-46
2022/04/16 05:01:38;;;;;;;;;;;21.80;48.00;;;;;;5096606;28;19939;-51
2022/04/16 05:04:05;;;;;;;;;;;21.80;48.00;;;;;;5096551;28;19930;-50
2022/04/16 05:06:32;;;;;;;;;;;21.70;47.90;;;;;;5096182;28;19943;-46
2022/04/16 05:08:59;;;;;;;;;;;21.80;47.90;;;;;;5096489;28;19974;-47
2022/04/16 05:11:26;;;;;;;;;;;21.70;48.50;;;;;;5096433;28;20288;-51
2022/04/16 05:13:53;;;;;;;;;;;21.70;47.90;;;;;;5095213;28;19924;-47
2022/04/16 05:16:20;;;;;;;;;;;21.80;48.00;;;;;;5095989;28;19964;-52
2022/04/16 05:18:47;;;;;;;;;;;21.80;47.90;;;;;;5096014;28;19939;-44
2022/04/16 05:21:14;;;;;;;;;;;21.80;47.90;;;;;;5095860;28;19971;-50
2022/04/16 05:23:41;;;;;;;;;;;21.80;47.90;;;;;;5096092;28;20295;-48
2022/04/16 05:26:09;;;;;;;;;;;21.80;47.90;;;;;;5095764;28;19924;-45
2022/04/16 05:28:39;;;;;;;;;;;21.80;47.90;;;;;;5077057;28;19935;-43
2022/04/16 05:31:07;;;;;;;;;;;21.70;47.80;;;;;;5096035;28;20312;-49
2022/04/16 05:36:20;;;;;;;;;;;21.70;47.80;;;;;;5096495;28;19973;-43
2022/04/16 05:38:47;;;;;;;;;;;21.80;47.90;;;;;;5095588;28;20379;-50
2022/04/16 05:41:13;;;;;;;;;;;21.80;47.90;;;;;;5096403;28;19977;-43
2022/04/16 05:43:40;;;;;;;;;;;21.80;47.90;;;;;;5076725;28;20395;-48
2022/04/16 05:46:07;;;;;;;;;;;21.80;47.90;;;;;;5095708;28;19931;-51
2022/04/16 05:48:35;;;;;;;;;;;21.80;47.90;;;;;;5095704;28;19924;-52
2022/04/16 05:51:02;;;;;;;;;;;21.80;47.90;;;;;;5095401;28;19924;-43
2022/04/16 05:53:30;;;;;;;;;;;21.80;47.80;;;;;;5095310;28;20375;-48
2022/04/16 05:55:57;;;;;;;;;;;21.80;47.80;;;;;;5095191;28;19931;-43
2022/04/16 05:58:24;;;;;;;;;;;21.80;47.80;;;;;;5094293;28;19931;-48
2022/04/16 06:00:51;;;;;;;;;;;21.80;47.80;;;;;;5095378;28;20341;-46
2022/04/16 06:03:20;;;;;;;;;;;21.80;47.80;;;;;;5095016;28;20050;-50
2022/04/16 06:05:47;;;;;;;;;;;21.80;47.80;;;;;;5094833;28;19939;-43
2022/04/16 06:08:14;;;;;;;;;;;21.80;47.80;;;;;;5094919;28;19924;-51
2022/04/16 06:10:41;;;;;;;;;;;21.80;47.80;;;;;;5094953;28;19973;-43
2022/04/16 06:13:11;;;;;;;;;;;21.80;47.80;;;;;;5094221;28;20328;-43
2022/04/16 06:15:41;;;;;;;;;;;21.80;47.80;;;;;;5094703;28;20384;-47
2022/04/16 06:18:12;;;;;;;;;;;21.80;47.80;;;;;;5094719;28;19924;-45
2022/04/16 06:20:38;;;;;;;;;;;21.80;47.80;;;;;;5095348;28;19971;-49
2022/04/16 06:23:06;;;;;;;;;;;21.80;47.70;;;;;;5094513;28;19927;-49
2022/04/16 06:25:33;;;;;;;;;;;21.80;47.70;;;;;;5094596;28;19939;-44
2022/04/16 06:28:00;;;;;;;;;;;21.80;47.70;;;;;;5094693;28;20425;-48
2022/04/16 06:30:27;;;;;;;;;;;21.80;47.70;;;;;;5094461;28;19930;-45
2022/04/16 06:32:54;;;;;;;;;;;21.80;47.70;;;;;;5094489;28;19924;-43
2022/04/16 06:35:21;;;;;;;;;;;21.80;47.70;;;;;;5094426;28;19924;-45
2022/04/16 06:37:48;;;;;;;;;;;21.80;47.70;;;;;;5094705;28;19928;-44
2022/04/16 06:40:15;;;;;;;;;;;21.80;47.60;;;;;;5076412;28;19925;-45
2022/04/16 06:42:43;;;;;;;;;;;21.90;47.70;;;;;;5094674;28;19973;-43
2022/04/16 06:45:11;;;;;;;;;;;21.90;47.70;;;;;;5093720;28;20299;-48
2022/04/16 06:47:39;;;;;;;;;;;21.80;47.60;;;;;;5094230;28;19999;-43
2022/04/16 06:50:07;;;;;;;;;;;21.90;47.70;;;;;;5094195;28;20418;-44
2022/04/16 06:52:34;;;;;;;;;;;21.80;47.60;;;;;;5094388;28;19950;-43
2022/04/16 06:55:02;;;;;;;;;;;21.90;47.70;;;;;;5094512;28;19924;-43
2022/04/16 06:57:29;;;;;;;;;;;21.90;47.70;;;;;;5094430;28;19947;-46
2022/04/16 07:00:05;;;;;;;;;;;21.90;47.60;;;;;;5093465;28;19924;-44
2022/04/16 07:02:33;;;;;;;;;;;21.90;47.60;;;;;;5093811;28;19977;-44
2022/04/16 07:05:02;;;;;;;;;;;21.90;47.70;;;;;;5093994;28;20403;-43
2022/04/16 07:07:30;;;;;;;;;;;21.90;47.60;;;;;;5093834;28;19924;-44
2022/04/16 07:09:57;;;;;;;;;;;21.90;47.60;;;;;;5093982;28;19970;-44
2022/04/16 07:12:24;;;;;;;;;;;21.90;47.60;;;;;;5094278;28;20037;-43
2022/04/16 07:14:51;;;;;;;;;;;21.90;47.60;;;;;;5092936;28;19931;-47
2022/04/16 07:17:19;;;;;;;;;;;21.90;47.60;;;;;;5094114;28;19924;-44
2022/04/16 07:19:47;;;;;;;;;;;21.90;47.70;;;;;;5094120;28;19925;-44
2022/04/16 07:22:14;;;;;;;;;;;21.90;47.60;;;;;;5093453;28;20376;-48
2022/04/16 07:24:42;;;;;;;;;;;21.90;47.60;;;;;;5093837;28;19946;-47
2022/04/16 07:27:10;;;;;;;;;;;21.90;47.60;;;;;;5093916;28;19924;-47
2022/04/16 07:29:37;;;;;;;;;;;21.90;47.60;;;;;;5092631;28;20005;-43
2022/04/16 07:32:04;;;;;;;;;;;21.90;47.50;;;;;;5093980;28;19924;-43
2022/04/16 07:34:31;;;;;;;;;;;21.90;47.50;;;;;;5093926;28;19924;-47
2022/04/16 07:36:58;;;;;;;;;;;21.90;47.50;;;;;;5093664;28;20307;-45
2022/04/16 07:39:25;;;;;;;;;;;21.90;47.50;;;;;;5093944;28;19924;-43
2022/04/16 07:41:52;;;;;;;;;;;21.90;47.60;;;;;;5093891;28;19924;-43
2022/04/16 07:44:19;;;;;;;;;;;21.90;47.60;;;;;;5092607;28;19924;-44
2022/04/16 07:46:46;;;;;;;;;;;21.90;47.50;;;;;;5093425;28;20403;-44
2022/04/16 07:49:13;;;;;;;;;;;21.90;47.50;;;;;;5093839;28;19997;-51
2022/04/16 07:51:42;;;;;;;;;;;21.90;47.50;;;;;;5093672;28;19924;-48
2022/04/16 07:54:09;;;;;;;;;;;21.90;47.50;;;;;;5093737;28;19924;-51
2022/04/16 07:56:36;;;;;;;;;;;21.90;47.50;;;;;;5093749;28;19928;-52
2022/04/16 07:59:03;;;;;;;;;;;21.90;47.50;;;;;;5092793;28;19974;-51
2022/04/16 08:01:31;;;;;;;;;;;21.90;47.50;;;;;;5093331;28;19932;-49
2022/04/16 08:03:58;;;;;;;;;;;21.90;47.50;;;;;;5093390;28;19938;-46
2022/04/16 08:06:25;;;;;;;;;;;21.90;47.50;;;;;;5093264;28;19924;-48
2022/04/16 08:08:52;;;;;;;;;;;21.90;47.50;;;;;;5093672;28;19924;-52
2022/04/16 08:11:19;;;;;;;;;;;21.90;47.50;;;;;;5093303;28;19928;-51
2022/04/16 08:13:46;;;;;;;;;;;21.90;47.50;;;;;;5094582;28;19942;-47
2022/04/16 08:16:13;;;;;;;;;;;21.90;47.50;;;;;;5097073;28;19947;-52
2022/04/16 08:18:41;;;;;;;;;;;21.90;47.50;;;;;;5097163;28;19924;-49
2022/04/16 08:21:08;;;;;;;;;;;21.90;47.50;;;;;;5096969;28;19974;-46
2022/04/16 08:23:40;;;;;;;;;;;21.90;47.50;;;;;;5096889;28;19924;-52
2022/04/16 08:26:07;;;;;;;;;;;21.90;47.50;;;;;;5096946;28;20448;-48
2022/04/16 08:28:34;;;;;;;;;;;21.90;47.50;;;;;;5096997;28;19924;-44
2022/04/16 08:31:01;;;;;;;;;;;21.90;47.40;;;;;;5096261;28;19924;-49
2022/04/16 08:33:29;;;;;;;;;;;21.90;47.40;;;;;;5097114;28;19924;-44
2022/04/16 08:35:56;;;;;;;;;;;21.90;47.40;;;;;;5096842;28;19924;-52
2022/04/16 08:38:23;;;;;;;;;;;21.90;47.40;;;;;;5096780;28;19924;-48
2022/04/16 08:40:50;;;;;;;;;;;21.90;47.40;;;;;;5097084;28;19924;-44
2022/04/16 08:43:17;;;;;;;;;;;21.90;47.40;;;;;;5096732;28;19924;-45
2022/04/16 08:45:45;;;;;;;;;;;21.90;47.40;;;;;;5095713;28;19977;-44
2022/04/16 08:48:14;;;;;;;;;;;21.90;47.40;;;;;;5078887;28;19977;-46
2022/04/16 08:50:42;;;;;;;;;;;21.90;48.00;;;;;;5096751;28;19930;-49
2022/04/16 08:53:09;;;;;;;;;;;21.90;47.40;;;;;;5096470;28;20441;-45
2022/04/16 08:55:37;;;;;;;;;;;22.00;47.40;;;;;;5096781;28;19928;-45
2022/04/16 08:58:04;;;;;;;;;;;22.00;47.40;;;;;;5096711;28;19934;-44
2022/04/16 09:00:31;;;;;;;;;;;22.00;47.40;;;;;;5095369;28;19924;-44
2022/04/16 09:02:59;;;;;;;;;;;22.00;47.40;;;;;;5096664;28;19924;-44
2022/04/16 09:05:27;;;;;;;;;;;22.00;47.30;;;;;;5096296;28;19971;-51
2022/04/16 09:07:56;;;;;;;;;;;22.00;47.30;;;;;;5096160;28;19931;-44
2022/04/16 09:10:26;;;;;;;;;;;22.00;47.30;;;;;;5096231;28;19970;-50
2022/04/16 09:12:54;;;;;;;;;;;22.00;47.30;;;;;;5097340;28;20259;-45
2022/04/16 09:15:22;;;;;;;;;;;22.00;47.30;;;;;;5095542;28;20358;-45
2022/04/16 09:18:05;;;;;;;;;;;22.00;47.20;;;;;;5096383;28;19928;-49
2022/04/16 09:20:33;;;;;;;;;;;22.00;47.30;;;;;;5095944;28;19924;-45
2022/04/16 09:23:01;;;;;;;;;;;22.00;47.20;;;;;;5096332;28;19924;-45
2022/04/16 09:25:30;;;;;;;;;;;22.00;47.20;;;;;;5095358;28;19924;-44
2022/04/16 09:28:04;;;;;;;;;;;22.00;47.20;;;;;;5096093;28;19973;-46
2022/04/16 09:30:33;;;;;;;;;;;22.00;47.20;;;;;;5095182;28;20331;-49
2022/04/16 09:33:01;;;;;;;;;;;22.00;47.20;;;;;;5096091;28;19924;-49
2022/04/16 09:35:29;;;;;;;;;;;22.00;47.30;;;;;;5095705;28;19973;-47
2022/04/16 09:38:12;;;;;;;;;;;22.00;47.20;;;;;;5095690;28;19982;-52
2022/04/16 09:40:40;;;;;;;;;;;22.00;47.20;;;;;;5095545;28;20383;-45
2022/04/16 09:43:08;;;;;;;;;;;22.10;47.30;;;;;;5095844;28;20019;-49
2022/04/16 09:45:38;;;;;;;;;;;22.00;47.10;;;;;;5094358;28;19931;-46
2022/04/16 09:48:07;;;;;;;;;;;22.10;47.20;;;;;;5095732;28;19986;-49
2022/04/16 09:50:35;;;;;;;;;;;22.10;47.20;;;;;;5095286;28;19924;-49
2022/04/16 09:53:03;;;;;;;;;;;22.10;47.10;;;;;;5095699;28;20341;-48
2022/04/16 09:55:31;;;;;;;;;;;22.10;47.10;;;;;;5095643;28;20277;-49
2022/04/16 09:58:02;;;;;;;;;;;22.10;47.10;;;;;;5095296;28;20277;-48
2022/04/16 10:00:31;;;;;;;;;;;22.10;47.00;;;;;;5094446;28;20329;-50
2022/04/16 10:02:59;;;;;;;;;;;22.10;47.00;;;;;;5095180;28;19947;-45
2022/04/16 10:05:27;;;;;;;;;;;22.20;47.00;;;;;;5095425;28;19946;-44
2022/04/16 10:07:53;;;;;;;;;;;22.20;47.00;;;;;;5095046;28;20027;-44
2022/04/16 10:10:46;;;;;;;;;;;22.20;47.00;;;;;;5095341;28;19930;-50
2022/04/16 10:13:10;;;;;;;;;;;22.20;46.90;;;;;;5094917;28;20011;-44
2022/04/16 10:15:37;;;;;;;;;;;22.20;46.90;;;;;;5094336;28;19924;-46
2022/04/16 10:18:05;;;;;;;;;;;22.30;46.90;;;;;;5094869;28;19924;-44
2022/04/16 10:20:32;;;;;;;;;;;22.30;46.80;;;;;;5094721;28;20404;-48
2022/04/16 10:23:03;;;;;;;;;;;22.30;46.80;;;;;;5094637;28;19994;-46
2022/04/16 10:25:32;;;;;;;;;;;22.30;46.80;;;;;;5094768;28;19924;-47
2022/04/16 10:28:00;;;;;;;;;;;22.30;46.70;;;;;;5094614;28;19924;-44
2022/04/16 10:30:49;;;;;;;;;;;22.40;46.80;;;;;;5075275;28;20217;-45
2022/04/16 10:33:27;;;;;;;;;;;22.30;46.60;;;;;;5094607;28;19974;-45
2022/04/16 10:35:57;;;;;;;;;;;22.40;46.60;;;;;;5093714;28;19928;-44
2022/04/16 10:38:34;;;;;;;;;;;22.40;46.50;;;;;;5094392;28;20417;-46
2022/04/16 10:41:08;;;;;;;;;;;22.50;46.50;;;;;;5076934;28;19924;-43
2022/04/16 10:43:54;;;;;;;;;;;22.50;46.40;;;;;;5094293;28;19967;-44
2022/04/16 10:46:21;;;;;;;;;;;22.50;46.30;;;;;;5093532;28;19955;-43
2022/04/16 10:48:49;;;;;;;;;;;22.60;46.30;;;;;;5094590;28;19924;-44
2022/04/16 10:51:22;;;;;;;;;;;22.60;46.30;;;;;;5094302;28;19967;-50
2022/04/16 10:53:49;;;;;;;;;;;22.60;46.30;;;;;;5094314;28;19924;-48
2022/04/16 10:56:23;;;;;;;;;;;22.60;46.30;;;;;;5094339;28;19935;-46
2022/04/16 10:59:00;;;;;;;;;;;22.60;46.20;;;;;;5094221;28;20461;-50
2022/04/16 11:01:29;;;;;;;;;;;22.60;46.20;;;;;;5087668;28;19929;-44
2022/04/16 11:03:57;;;;;;;;;;;22.60;46.20;;;;;;5074132;28;19937;-52
2022/04/16 11:06:34;;;;;;;;;;;22.60;46.20;;;;;;5073872;28;19924;-45
2022/04/16 11:09:01;;;;;;;;;;;22.70;46.20;;;;;;5073772;28;19974;-45
2022/04/16 11:11:31;;;;;;;;;;;22.60;46.10;;;;;;5074174;28;19924;-53
2022/04/16 11:13:59;;;;;;;;;;;22.70;46.10;;;;;;5074195;28;19924;-50
2022/04/16 11:16:26;;;;;;;;;;;22.70;46.20;;;;;;5078766;28;19924;-52
2022/04/16 11:18:53;;;;;;;;;;;22.70;46.20;;;;;;5094034;28;19963;-50
2022/04/16 11:21:25;;;;;;;;;;;22.70;46.10;;;;;;5094225;28;19924;-52
2022/04/16 11:23:53;;;;;;;;;;;22.70;46.20;;;;;;5093766;28;19931;-50
2022/04/16 11:34:49;;;;;;;;;;;22.60;46.20;;;;;;5094131;28;19931;-52
2022/04/16 11:37:32;;;;;;;;;;;22.60;46.30;;;;;;5094372;28;19924;-52
2022/04/16 11:40:05;;;;;;;;;;;22.50;46.20;;;;;;5093705;28;19924;-50
2022/04/16 11:42:33;;;;;;;;;;;22.60;46.30;;;;;;5094018;28;19924;-50
2022/04/16 11:45:00;;;;;;;;;;;22.60;46.30;;;;;;5093717;28;19928;-44
2022/04/16 11:47:28;;;;;;;;;;;22.50;46.30;;;;;;5083338;28;20379;-52
2022/04/16 11:50:00;;;;;;;;;;;22.50;46.30;;;;;;5077591;28;19932;-47
2022/04/16 11:52:28;;;;;;;;;;;22.50;46.30;;;;;;5077749;28;19990;-45
2022/04/16 11:55:15;;;;;;;;;;;22.50;46.30;;;;;;5077822;28;19924;-51
2022/04/16 11:57:49;;;;;;;;;;;22.50;46.30;;;;;;5077430;28;19924;-52
2022/04/16 12:00:18;;;;;;;;;;;22.60;46.30;;;;;;5077650;28;19974;-47
2022/04/16 12:02:48;;;;;;;;;;;22.60;46.30;;;;;;5089066;28;19974;-52
2022/04/16 12:05:16;;;;;;;;;;;22.60;46.20;;;;;;5079693;28;19924;-44
2022/04/16 12:07:52;;;;;;;;;;;22.60;46.20;;;;;;5097824;28;19931;-45
2022/04/16 12:10:19;;;;;;;;;;;22.70;46.20;;;;;;5097502;28;19924;-45
2022/04/16 12:12:52;;;;;;;;;;;22.70;46.10;;;;;;5097704;28;19977;-44
2022/04/16 12:15:23;;;;;;;;;;;22.60;46.00;;;;;;5079724;28;19975;-51
2022/04/16 12:17:51;;;;;;;;;;;22.70;46.10;;;;;;5096738;28;19924;-44
2022/04/16 12:20:20;;;;;;;;;;;22.70;46.10;;;;;;5097200;28;19946;-51
2022/04/16 12:22:48;;;;;;;;;;;22.70;46.00;;;;;;5097306;28;20335;-43
2022/04/16 12:25:17;;;;;;;;;;;22.70;46.00;;;;;;5097094;28;19925;-44
2022/04/16 12:27:45;;;;;;;;;;;22.70;45.90;;;;;;5096989;28;19982;-49
2022/04/16 12:30:13;;;;;;;;;;;22.70;45.90;;;;;;5097352;28;20340;-46
2022/04/16 12:32:40;;;;;;;;;;;22.70;45.90;;;;;;5096476;28;19963;-44
2022/04/16 12:35:08;;;;;;;;;;;22.70;45.90;;;;;;5097283;28;19934;-49
2022/04/16 12:37:35;;;;;;;;;;;22.70;46.00;;;;;;5096959;28;20384;-47
2022/04/16 12:40:02;;;;;;;;;;;22.70;45.90;;;;;;5096923;28;19931;-45
2022/04/16 12:42:29;;;;;;;;;;;22.70;46.00;;;;;;5096885;28;19923;-44
2022/04/16 12:44:56;;;;;;;;;;;22.70;46.10;;;;;;5096788;28;19931;-52
2022/04/16 12:47:23;;;;;;;;;;;22.60;46.10;;;;;;5096252;28;19986;-45
2022/04/16 12:49:50;;;;;;;;;;;22.60;46.10;;;;;;5096961;28;19978;-52
2022/04/16 12:52:17;;;;;;;;;;;22.60;46.20;;;;;;5096875;28;19928;-50
2022/04/16 12:54:44;;;;;;;;;;;22.60;46.20;;;;;;5096614;28;19924;-52
2022/04/16 12:57:10;;;;;;;;;;;22.50;46.20;;;;;;5096556;28;19978;-51
2022/04/16 12:59:37;;;;;;;;;;;22.50;46.30;;;;;;5095746;28;19968;-53
2022/04/16 13:02:04;;;;;;;;;;;22.50;46.30;;;;;;5095523;28;19928;-44
2022/04/16 13:04:33;;;;;;;;;;;22.50;46.40;;;;;;5096407;28;19924;-52
2022/04/16 13:07:00;;;;;;;;;;;22.50;46.40;;;;;;5096662;28;19947;-51
2022/04/16 13:09:27;;;;;;;;;;;22.50;46.40;;;;;;5096137;28;19977;-46
2022/04/16 13:11:54;;;;;;;;;;;22.50;46.50;;;;;;5096593;28;20334;-51
2022/04/16 13:14:22;;;;;;;;;;;22.40;46.40;;;;;;5096269;28;19931;-47
2022/04/16 13:16:49;;;;;;;;;;;22.40;46.40;;;;;;5096332;28;20386;-43
2022/04/16 13:19:16;;;;;;;;;;;22.40;46.50;;;;;;5095045;28;19924;-50
2022/04/16 13:21:44;;;;;;;;;;;22.40;46.50;;;;;;5078040;28;19924;-50
2022/04/16 13:24:14;;;;;;;;;;;22.40;46.50;;;;;;5095868;28;20375;-48
2022/04/16 13:26:43;;;;;;;;;;;22.40;46.60;;;;;;5096024;28;19978;-50
2022/04/16 13:29:10;;;;;;;;;;;22.40;46.60;;;;;;5096098;28;19924;-45
2022/04/16 13:31:38;;;;;;;;;;;22.30;46.50;;;;;;5096160;28;19935;-47
2022/04/16 13:34:06;;;;;;;;;;;22.30;46.50;;;;;;5094919;28;19925;-46
2022/04/16 13:36:33;;;;;;;;;;;22.30;46.50;;;;;;5077813;28;19963;-45
2022/04/16 13:39:00;;;;;;;;;;;22.30;46.50;;;;;;5095900;28;19931;-44
2022/04/16 13:41:40;;;;;;;;;;;22.30;46.60;;;;;;5095697;28;19932;-47
2022/04/16 13:44:10;;;;;;;;;;;22.30;46.60;;;;;;5095729;28;20379;-45
2022/04/16 13:46:37;;;;;;;;;;;22.30;46.60;;;;;;5095922;28;19932;-48
2022/04/16 13:49:04;;;;;;;;;;;22.30;47.00;;;;;;5094392;28;19978;-44
2022/04/16 13:51:32;;;;;;;;;;;22.30;46.60;;;;;;5095745;28;20366;-46
2022/04/16 13:54:00;;;;;;;;;;;22.30;46.70;;;;;;5077913;28;19924;-47
2022/04/16 13:56:27;;;;;;;;;;;22.30;46.70;;;;;;5095383;28;20027;-52
2022/04/16 13:58:55;;;;;;;;;;;22.30;46.70;;;;;;5095605;28;19930;-51
2022/04/16 14:01:22;;;;;;;;;;;22.30;46.70;;;;;;5095337;28;20394;-46
2022/04/16 14:03:50;;;;;;;;;;;22.20;46.60;;;;;;5083369;28;19931;-49
2022/04/16 14:06:18;;;;;;;;;;;22.30;46.70;;;;;;5075848;28;19935;-48
2022/04/16 14:08:45;;;;;;;;;;;22.30;46.70;;;;;;5074872;28;19925;-47
2022/04/16 14:11:13;;;;;;;;;;;22.30;46.70;;;;;;5074818;28;19924;-44
2022/04/16 14:13:41;;;;;;;;;;;22.30;46.60;;;;;;5074793;28;19925;-47
2022/04/16 14:16:11;;;;;;;;;;;22.30;46.60;;;;;;5074779;28;19931;-45
2022/04/16 14:18:38;;;;;;;;;;;22.30;46.60;;;;;;5082339;28;19928;-49
2022/04/16 14:21:07;;;;;;;;;;;22.30;46.60;;;;;;5094842;28;19931;-46
2022/04/16 14:23:35;;;;;;;;;;;22.30;46.60;;;;;;5094847;28;19950;-46
2022/04/16 14:26:02;;;;;;;;;;;22.30;46.60;;;;;;5094753;28;20368;-46
2022/04/16 14:28:30;;;;;;;;;;;22.30;46.60;;;;;;5094442;28;19924;-48
2022/04/16 14:30:57;;;;;;;;;;;22.30;46.60;;;;;;5094720;28;19938;-53
2022/04/16 14:33:24;;;;;;;;;;;22.30;46.60;;;;;;5093706;28;19924;-52
2022/04/16 14:35:51;;;;;;;;;;;22.30;46.60;;;;;;5094761;28;20041;-48
2022/04/16 14:38:20;;;;;;;;;;;22.30;46.60;;;;;;5095020;28;19928;-51
2022/04/16 14:40:47;;;;;;;;;;;22.20;46.50;;;;;;5094953;28;20299;-50
2022/04/16 14:43:14;;;;;;;;;;;22.30;46.60;;;;;;5094617;28;19974;-52
2022/04/16 14:45:41;;;;;;;;;;;22.30;46.60;;;;;;5094541;28;19924;-48